sensor_id;sensor_type;location;lat;lon;timestamp;P1;durP1;ratioP1;P2;durP2;ratioP2
54412;SDS011;41533;51.390;0.074;2023-03-01T00:01:16;2.15;;;1.35;;
54412;SDS011;41533;51.390;0.074;2023-03-01T00:03:43;4.82;;;1.45;;
54412;SDS011;41533;51.390;0.074;2023-03-01T00:06:11;1.48;;;1.08;;
54412;SDS011;41533;51.390;0.074;2023-03-01T00:08:38;1.75;;;1.35;;
54412;SDS011;41533;51.390;0.074;2023-03-01T00:11:13;2.70;;;1.33;;
54412;SDS011;41533;51.390;0.074;2023-03-01T00:13:41;2.35;;;1.10;;
54412;SDS011;41533;51.390;0.074;2023-03-01T00:16:10;1.23;;;0.82;;
54412;SDS011;41533;51.390;0.074;2023-03-01T00:18:37;2.38;;;1.55;;
54412;SDS011;41533;51.390;0.074;2023-03-01T00:21:05;1.80;;;1.20;;
54412;SDS011;41533;51.390;0.074;2023-03-01T00:23:35;2.58;;;1.40;;
54412;SDS011;41533;51.390;0.074;2023-03-01T00:26:05;1.92;;;1.20;;
54412;SDS011;41533;51.390;0.074;2023-03-01T00:28:33;2.17;;;1.10;;
54412;SDS011;41533;51.390;0.074;2023-03-01T00:31:05;1.63;;;1.38;;
54412;SDS011;41533;51.390;0.074;2023-03-01T00:33:32;1.42;;;1.10;;
54412;SDS011;41533;51.390;0.074;2023-03-01T00:35:59;1.55;;;1.17;;
54412;SDS011;41533;51.390;0.074;2023-03-01T00:38:27;2.95;;;1.30;;
54412;SDS011;41533;51.390;0.074;2023-03-01T00:40:54;1.90;;;1.15;;
54412;SDS011;41533;51.390;0.074;2023-03-01T00:43:21;1.48;;;1.23;;
54412;SDS011;41533;51.390;0.074;2023-03-01T00:45:48;1.50;;;1.35;;
54412;SDS011;41533;51.390;0.074;2023-03-01T00:48:16;3.67;;;1.20;;
54412;SDS011;41533;51.390;0.074;2023-03-01T00:50:43;1.85;;;1.30;;
54412;SDS011;41533;51.390;0.074;2023-03-01T00:53:10;3.33;;;1.38;;
54412;SDS011;41533;51.390;0.074;2023-03-01T00:55:37;3.08;;;1.48;;
54412;SDS011;41533;51.390;0.074;2023-03-01T00:58:05;2.28;;;1.40;;
54412;SDS011;41533;51.390;0.074;2023-03-01T01:00:32;1.83;;;1.20;;
54412;SDS011;41533;51.390;0.074;2023-03-01T01:03:00;3.38;;;1.60;;
54412;SDS011;41533;51.390;0.074;2023-03-01T01:05:27;3.65;;;1.50;;
54412;SDS011;41533;51.390;0.074;2023-03-01T01:07:55;3.03;;;1.33;;
54412;SDS011;41533;51.390;0.074;2023-03-01T01:10:22;3.90;;;1.67;;
54412;SDS011;41533;51.390;0.074;2023-03-01T01:12:49;3.35;;;1.40;;
54412;SDS011;41533;51.390;0.074;2023-03-01T01:15:16;2.80;;;1.60;;
54412;SDS011;41533;51.390;0.074;2023-03-01T01:17:43;5.55;;;2.05;;
54412;SDS011;41533;51.390;0.074;2023-03-01T01:20:11;4.00;;;1.98;;
54412;SDS011;41533;51.390;0.074;2023-03-01T01:22:38;2.78;;;1.58;;
54412;SDS011;41533;51.390;0.074;2023-03-01T01:25:07;2.72;;;1.60;;
54412;SDS011;41533;51.390;0.074;2023-03-01T01:27:35;3.03;;;1.45;;
54412;SDS011;41533;51.390;0.074;2023-03-01T01:30:03;2.85;;;1.58;;
54412;SDS011;41533;51.390;0.074;2023-03-01T01:32:30;3.47;;;1.23;;
54412;SDS011;41533;51.390;0.074;2023-03-01T01:34:57;4.97;;;1.92;;
54412;SDS011;41533;51.390;0.074;2023-03-01T01:37:25;4.30;;;1.60;;
54412;SDS011;41533;51.390;0.074;2023-03-01T01:39:58;6.60;;;1.88;;
54412;SDS011;41533;51.390;0.074;2023-03-01T01:42:26;5.22;;;1.60;;
54412;SDS011;41533;51.390;0.074;2023-03-01T01:47:40;4.68;;;2.03;;
54412;SDS011;41533;51.390;0.074;2023-03-01T01:50:08;4.05;;;1.70;;
54412;SDS011;41533;51.390;0.074;2023-03-01T01:52:36;2.22;;;1.67;;
54412;SDS011;41533;51.390;0.074;2023-03-01T01:57:39;2.38;;;1.27;;
54412;SDS011;41533;51.390;0.074;2023-03-01T02:00:08;2.83;;;1.40;;
54412;SDS011;41533;51.390;0.074;2023-03-01T02:02:43;2.17;;;1.33;;
54412;SDS011;41533;51.390;0.074;2023-03-01T02:05:16;4.18;;;1.65;;
54412;SDS011;41533;51.390;0.074;2023-03-01T02:07:47;2.75;;;1.55;;
54412;SDS011;41533;51.390;0.074;2023-03-01T02:10:19;5.53;;;1.50;;
54412;SDS011;41533;51.390;0.074;2023-03-01T02:12:47;2.25;;;1.52;;
54412;SDS011;41533;51.390;0.074;2023-03-01T02:15:14;2.55;;;1.40;;
54412;SDS011;41533;51.390;0.074;2023-03-01T02:17:41;2.78;;;2.03;;
54412;SDS011;41533;51.390;0.074;2023-03-01T02:22:38;4.90;;;1.60;;
54412;SDS011;41533;51.390;0.074;2023-03-01T02:27:49;3.60;;;1.38;;
54412;SDS011;41533;51.390;0.074;2023-03-01T02:30:20;1.92;;;1.65;;
54412;SDS011;41533;51.390;0.074;2023-03-01T02:32:47;2.40;;;1.40;;
54412;SDS011;41533;51.390;0.074;2023-03-01T02:35:16;6.03;;;2.05;;
54412;SDS011;41533;51.390;0.074;2023-03-01T02:37:44;4.93;;;1.70;;
54412;SDS011;41533;51.390;0.074;2023-03-01T02:40:13;2.50;;;1.52;;
54412;SDS011;41533;51.390;0.074;2023-03-01T02:42:47;3.88;;;1.70;;
54412;SDS011;41533;51.390;0.074;2023-03-01T02:45:15;5.85;;;1.60;;
54412;SDS011;41533;51.390;0.074;2023-03-01T02:47:42;1.85;;;1.30;;
54412;SDS011;41533;51.390;0.074;2023-03-01T02:52:55;2.15;;;1.33;;
54412;SDS011;41533;51.390;0.074;2023-03-01T02:55:24;1.50;;;1.08;;
54412;SDS011;41533;51.390;0.074;2023-03-01T02:57:51;1.27;;;1.02;;
54412;SDS011;41533;51.390;0.074;2023-03-01T03:00:28;3.25;;;1.10;;
54412;SDS011;41533;51.390;0.074;2023-03-01T03:02:57;1.60;;;0.90;;
54412;SDS011;41533;51.390;0.074;2023-03-01T03:05:26;1.55;;;0.90;;
54412;SDS011;41533;51.390;0.074;2023-03-01T03:07:57;0.82;;;0.80;;
54412;SDS011;41533;51.390;0.074;2023-03-01T03:10:27;2.28;;;1.10;;
54412;SDS011;41533;51.390;0.074;2023-03-01T03:12:56;0.70;;;0.70;;
54412;SDS011;41533;51.390;0.074;2023-03-01T03:15:24;1.17;;;0.70;;
54412;SDS011;41533;51.390;0.074;2023-03-01T03:17:52;1.77;;;0.82;;
54412;SDS011;41533;51.390;0.074;2023-03-01T03:20:21;2.08;;;1.15;;
54412;SDS011;41533;51.390;0.074;2023-03-01T03:22:50;2.05;;;0.95;;
54412;SDS011;41533;51.390;0.074;2023-03-01T03:25:17;3.42;;;0.85;;
54412;SDS011;41533;51.390;0.074;2023-03-01T03:27:45;0.95;;;0.80;;
54412;SDS011;41533;51.390;0.074;2023-03-01T03:30:14;2.85;;;0.90;;
54412;SDS011;41533;51.390;0.074;2023-03-01T03:32:43;1.42;;;0.80;;
54412;SDS011;41533;51.390;0.074;2023-03-01T03:35:24;2.20;;;0.60;;
54412;SDS011;41533;51.390;0.074;2023-03-01T03:37:51;1.02;;;0.60;;
54412;SDS011;41533;51.390;0.074;2023-03-01T03:40:37;2.33;;;0.90;;
54412;SDS011;41533;51.390;0.074;2023-03-01T03:43:06;0.82;;;0.50;;
54412;SDS011;41533;51.390;0.074;2023-03-01T03:45:35;0.88;;;0.60;;
54412;SDS011;41533;51.390;0.074;2023-03-01T03:48:03;1.05;;;0.68;;
54412;SDS011;41533;51.390;0.074;2023-03-01T03:50:32;1.55;;;0.77;;
54412;SDS011;41533;51.390;0.074;2023-03-01T03:53:04;1.27;;;0.95;;
54412;SDS011;41533;51.390;0.074;2023-03-01T03:55:31;0.65;;;0.63;;
54412;SDS011;41533;51.390;0.074;2023-03-01T03:58:01;1.00;;;0.77;;
54412;SDS011;41533;51.390;0.074;2023-03-01T04:00:34;1.83;;;0.90;;
54412;SDS011;41533;51.390;0.074;2023-03-01T04:03:02;1.30;;;0.80;;
54412;SDS011;41533;51.390;0.074;2023-03-01T04:05:30;0.55;;;0.55;;
54412;SDS011;41533;51.390;0.074;2023-03-01T04:07:57;1.23;;;0.63;;
54412;SDS011;41533;51.390;0.074;2023-03-01T04:10:35;0.68;;;0.57;;
54412;SDS011;41533;51.390;0.074;2023-03-01T04:13:07;1.83;;;0.68;;
54412;SDS011;41533;51.390;0.074;2023-03-01T04:15:36;1.65;;;0.70;;
54412;SDS011;41533;51.390;0.074;2023-03-01T04:18:03;0.90;;;0.57;;
54412;SDS011;41533;51.390;0.074;2023-03-01T04:20:31;0.40;;;0.40;;
54412;SDS011;41533;51.390;0.074;2023-03-01T04:23:01;0.40;;;0.40;;
54412;SDS011;41533;51.390;0.074;2023-03-01T04:25:38;0.70;;;0.70;;
54412;SDS011;41533;51.390;0.074;2023-03-01T04:28:06;1.15;;;0.70;;
54412;SDS011;41533;51.390;0.074;2023-03-01T04:30:34;0.82;;;0.50;;
54412;SDS011;41533;51.390;0.074;2023-03-01T04:33:07;0.50;;;0.50;;
54412;SDS011;41533;51.390;0.074;2023-03-01T04:35:35;2.10;;;0.68;;
54412;SDS011;41533;51.390;0.074;2023-03-01T04:38:03;1.23;;;0.40;;
54412;SDS011;41533;51.390;0.074;2023-03-01T04:40:31;0.47;;;0.38;;
54412;SDS011;41533;51.390;0.074;2023-03-01T04:42:58;3.05;;;0.60;;
54412;SDS011;41533;51.390;0.074;2023-03-01T04:45:25;0.57;;;0.50;;
54412;SDS011;41533;51.390;0.074;2023-03-01T04:47:53;0.40;;;0.40;;
54412;SDS011;41533;51.390;0.074;2023-03-01T04:50:20;2.92;;;0.70;;
54412;SDS011;41533;51.390;0.074;2023-03-01T04:52:48;1.77;;;0.80;;
54412;SDS011;41533;51.390;0.074;2023-03-01T04:55:16;1.23;;;0.52;;
54412;SDS011;41533;51.390;0.074;2023-03-01T04:57:43;0.40;;;0.40;;
54412;SDS011;41533;51.390;0.074;2023-03-01T05:00:11;0.30;;;0.30;;
54412;SDS011;41533;51.390;0.074;2023-03-01T05:05:21;0.88;;;0.50;;
54412;SDS011;41533;51.390;0.074;2023-03-01T05:07:53;0.52;;;0.35;;
54412;SDS011;41533;51.390;0.074;2023-03-01T05:10:20;1.50;;;0.47;;
54412;SDS011;41533;51.390;0.074;2023-03-01T05:12:48;0.40;;;0.40;;
54412;SDS011;41533;51.390;0.074;2023-03-01T05:15:15;1.23;;;0.63;;
54412;SDS011;41533;51.390;0.074;2023-03-01T05:17:42;0.40;;;0.40;;
54412;SDS011;41533;51.390;0.074;2023-03-01T05:20:10;0.90;;;0.47;;
54412;SDS011;41533;51.390;0.074;2023-03-01T05:22:37;0.40;;;0.40;;
54412;SDS011;41533;51.390;0.074;2023-03-01T05:25:05;0.85;;;0.40;;
54412;SDS011;41533;51.390;0.074;2023-03-01T05:27:34;4.03;;;0.40;;
54412;SDS011;41533;51.390;0.074;2023-03-01T05:30:02;0.68;;;0.43;;
54412;SDS011;41533;51.390;0.074;2023-03-01T05:32:41;1.85;;;0.60;;
54412;SDS011;41533;51.390;0.074;2023-03-01T05:35:08;0.50;;;0.50;;
54412;SDS011;41533;51.390;0.074;2023-03-01T05:37:36;0.40;;;0.40;;
54412;SDS011;41533;51.390;0.074;2023-03-01T05:40:03;0.43;;;0.30;;
54412;SDS011;41533;51.390;0.074;2023-03-01T05:42:31;0.28;;;0.28;;
54412;SDS011;41533;51.390;0.074;2023-03-01T05:44:59;0.40;;;0.30;;
54412;SDS011;41533;51.390;0.074;2023-03-01T05:47:26;0.40;;;0.30;;
54412;SDS011;41533;51.390;0.074;2023-03-01T05:49:53;0.85;;;0.45;;
54412;SDS011;41533;51.390;0.074;2023-03-01T05:52:20;1.30;;;0.50;;
54412;SDS011;41533;51.390;0.074;2023-03-01T05:54:47;0.30;;;0.30;;
54412;SDS011;41533;51.390;0.074;2023-03-01T05:57:15;0.32;;;0.32;;
54412;SDS011;41533;51.390;0.074;2023-03-01T05:59:42;0.43;;;0.40;;
54412;SDS011;41533;51.390;0.074;2023-03-01T06:02:09;2.00;;;0.30;;
54412;SDS011;41533;51.390;0.074;2023-03-01T06:04:36;0.30;;;0.30;;
54412;SDS011;41533;51.390;0.074;2023-03-01T06:07:04;0.85;;;0.52;;
54412;SDS011;41533;51.390;0.074;2023-03-01T06:09:31;0.63;;;0.40;;
54412;SDS011;41533;51.390;0.074;2023-03-01T06:11:58;2.08;;;0.30;;
54412;SDS011;41533;51.390;0.074;2023-03-01T06:14:25;0.30;;;0.30;;
54412;SDS011;41533;51.390;0.074;2023-03-01T06:16:52;0.40;;;0.40;;
54412;SDS011;41533;51.390;0.074;2023-03-01T06:19:19;1.23;;;0.32;;
54412;SDS011;41533;51.390;0.074;2023-03-01T06:21:47;0.70;;;0.40;;
54412;SDS011;41533;51.390;0.074;2023-03-01T06:24:14;0.43;;;0.43;;
54412;SDS011;41533;51.390;0.074;2023-03-01T06:26:41;0.40;;;0.40;;
54412;SDS011;41533;51.390;0.074;2023-03-01T06:29:08;2.67;;;0.40;;
54412;SDS011;41533;51.390;0.074;2023-03-01T06:31:36;0.35;;;0.35;;
54412;SDS011;41533;51.390;0.074;2023-03-01T06:34:03;0.20;;;0.20;;
54412;SDS011;41533;51.390;0.074;2023-03-01T06:36:30;0.30;;;0.30;;
54412;SDS011;41533;51.390;0.074;2023-03-01T06:38:58;1.20;;;0.40;;
54412;SDS011;41533;51.390;0.074;2023-03-01T06:41:25;0.32;;;0.32;;
54412;SDS011;41533;51.390;0.074;2023-03-01T06:43:52;0.30;;;0.30;;
54412;SDS011;41533;51.390;0.074;2023-03-01T06:46:21;0.73;;;0.40;;
54412;SDS011;41533;51.390;0.074;2023-03-01T06:48:48;0.20;;;0.20;;
54412;SDS011;41533;51.390;0.074;2023-03-01T06:51:18;0.90;;;0.30;;
54412;SDS011;41533;51.390;0.074;2023-03-01T06:53:46;0.47;;;0.32;;
54412;SDS011;41533;51.390;0.074;2023-03-01T06:56:13;0.35;;;0.30;;
54412;SDS011;41533;51.390;0.074;2023-03-01T06:58:40;0.93;;;0.28;;
54412;SDS011;41533;51.390;0.074;2023-03-01T07:01:07;0.40;;;0.40;;
54412;SDS011;41533;51.390;0.074;2023-03-01T07:03:35;0.60;;;0.60;;
54412;SDS011;41533;51.390;0.074;2023-03-01T07:06:02;0.35;;;0.30;;
54412;SDS011;41533;51.390;0.074;2023-03-01T07:08:29;0.55;;;0.40;;
54412;SDS011;41533;51.390;0.074;2023-03-01T07:10:57;0.43;;;0.30;;
54412;SDS011;41533;51.390;0.074;2023-03-01T07:13:24;2.17;;;0.40;;
54412;SDS011;41533;51.390;0.074;2023-03-01T07:15:51;0.30;;;0.30;;
54412;SDS011;41533;51.390;0.074;2023-03-01T07:18:19;1.35;;;0.32;;
54412;SDS011;41533;51.390;0.074;2023-03-01T07:20:46;0.40;;;0.40;;
54412;SDS011;41533;51.390;0.074;2023-03-01T07:23:13;0.40;;;0.40;;
54412;SDS011;41533;51.390;0.074;2023-03-01T07:25:41;1.30;;;0.32;;
54412;SDS011;41533;51.390;0.074;2023-03-01T07:28:08;1.17;;;0.32;;
54412;SDS011;41533;51.390;0.074;2023-03-01T07:30:35;0.30;;;0.30;;
54412;SDS011;41533;51.390;0.074;2023-03-01T07:33:03;0.80;;;0.30;;
54412;SDS011;41533;51.390;0.074;2023-03-01T07:35:30;0.60;;;0.45;;
54412;SDS011;41533;51.390;0.074;2023-03-01T07:38:00;1.35;;;0.63;;
54412;SDS011;41533;51.390;0.074;2023-03-01T07:40:28;1.17;;;0.50;;
54412;SDS011;41533;51.390;0.074;2023-03-01T07:42:56;1.23;;;0.93;;
54412;SDS011;41533;51.390;0.074;2023-03-01T07:45:25;0.52;;;0.52;;
54412;SDS011;41533;51.390;0.074;2023-03-01T07:47:52;1.67;;;0.50;;
54412;SDS011;41533;51.390;0.074;2023-03-01T07:50:20;0.30;;;0.30;;
54412;SDS011;41533;51.390;0.074;2023-03-01T07:52:48;3.20;;;0.43;;
54412;SDS011;41533;51.390;0.074;2023-03-01T07:55:16;1.85;;;0.70;;
54412;SDS011;41533;51.390;0.074;2023-03-01T07:57:43;1.38;;;0.40;;
54412;SDS011;41533;51.390;0.074;2023-03-01T08:00:11;0.35;;;0.35;;
54412;SDS011;41533;51.390;0.074;2023-03-01T08:02:39;0.30;;;0.30;;
54412;SDS011;41533;51.390;0.074;2023-03-01T08:05:09;2.60;;;0.50;;
54412;SDS011;41533;51.390;0.074;2023-03-01T08:07:36;0.30;;;0.30;;
54412;SDS011;41533;51.390;0.074;2023-03-01T08:10:04;1.02;;;0.68;;
54412;SDS011;41533;51.390;0.074;2023-03-01T08:12:34;1.27;;;0.57;;
54412;SDS011;41533;51.390;0.074;2023-03-01T08:15:01;0.77;;;0.50;;
54412;SDS011;41533;51.390;0.074;2023-03-01T08:17:28;0.70;;;0.40;;
54412;SDS011;41533;51.390;0.074;2023-03-01T08:19:55;1.42;;;0.43;;
54412;SDS011;41533;51.390;0.074;2023-03-01T08:22:23;0.90;;;0.65;;
54412;SDS011;41533;51.390;0.074;2023-03-01T08:24:50;0.80;;;0.50;;
54412;SDS011;41533;51.390;0.074;2023-03-01T08:27:17;0.65;;;0.30;;
54412;SDS011;41533;51.390;0.074;2023-03-01T08:29:44;0.30;;;0.30;;
54412;SDS011;41533;51.390;0.074;2023-03-01T08:32:12;0.70;;;0.35;;
54412;SDS011;41533;51.390;0.074;2023-03-01T08:34:41;1.33;;;0.95;;
54412;SDS011;41533;51.390;0.074;2023-03-01T08:37:08;0.50;;;0.50;;
54412;SDS011;41533;51.390;0.074;2023-03-01T08:39:36;1.08;;;0.50;;
54412;SDS011;41533;51.390;0.074;2023-03-01T08:42:04;1.17;;;0.50;;
54412;SDS011;41533;51.390;0.074;2023-03-01T08:44:33;0.50;;;0.40;;
54412;SDS011;41533;51.390;0.074;2023-03-01T08:47:02;3.03;;;0.60;;
54412;SDS011;41533;51.390;0.074;2023-03-01T08:49:30;0.30;;;0.30;;
54412;SDS011;41533;51.390;0.074;2023-03-01T08:52:01;0.57;;;0.40;;
54412;SDS011;41533;51.390;0.074;2023-03-01T08:54:29;0.95;;;0.65;;
54412;SDS011;41533;51.390;0.074;2023-03-01T08:56:56;1.17;;;0.57;;
54412;SDS011;41533;51.390;0.074;2023-03-01T08:59:25;1.25;;;0.47;;
54412;SDS011;41533;51.390;0.074;2023-03-01T09:01:53;0.70;;;0.40;;
54412;SDS011;41533;51.390;0.074;2023-03-01T09:04:21;2.13;;;0.73;;
54412;SDS011;41533;51.390;0.074;2023-03-01T09:06:48;1.20;;;0.50;;
54412;SDS011;41533;51.390;0.074;2023-03-01T09:09:16;1.05;;;0.47;;
54412;SDS011;41533;51.390;0.074;2023-03-01T09:11:44;0.40;;;0.40;;
54412;SDS011;41533;51.390;0.074;2023-03-01T09:14:13;0.60;;;0.50;;
54412;SDS011;41533;51.390;0.074;2023-03-01T09:16:40;0.55;;;0.40;;
54412;SDS011;41533;51.390;0.074;2023-03-01T09:19:07;0.45;;;0.45;;
54412;SDS011;41533;51.390;0.074;2023-03-01T09:21:35;0.35;;;0.35;;
54412;SDS011;41533;51.390;0.074;2023-03-01T09:24:11;0.40;;;0.40;;
54412;SDS011;41533;51.390;0.074;2023-03-01T09:26:39;1.45;;;0.50;;
54412;SDS011;41533;51.390;0.074;2023-03-01T09:29:06;0.90;;;0.70;;
54412;SDS011;41533;51.390;0.074;2023-03-01T09:31:33;0.60;;;0.50;;
54412;SDS011;41533;51.390;0.074;2023-03-01T09:34:01;1.65;;;0.55;;
54412;SDS011;41533;51.390;0.074;2023-03-01T09:36:28;2.38;;;0.60;;
54412;SDS011;41533;51.390;0.074;2023-03-01T09:38:57;1.15;;;0.63;;
54412;SDS011;41533;51.390;0.074;2023-03-01T09:46:59;1.02;;;0.43;;
54412;SDS011;41533;51.390;0.074;2023-03-01T09:49:36;0.32;;;0.32;;
54412;SDS011;41533;51.390;0.074;2023-03-01T09:52:12;0.52;;;0.50;;
54412;SDS011;41533;51.390;0.074;2023-03-01T09:54:46;0.85;;;0.40;;
54412;SDS011;41533;51.390;0.074;2023-03-01T10:04:55;0.70;;;0.55;;
54412;SDS011;41533;51.390;0.074;2023-03-01T10:10:18;2.65;;;0.50;;
54412;SDS011;41533;51.390;0.074;2023-03-01T10:12:48;0.40;;;0.40;;
54412;SDS011;41533;51.390;0.074;2023-03-01T10:15:22;1.42;;;0.40;;
54412;SDS011;41533;51.390;0.074;2023-03-01T10:17:54;1.65;;;0.63;;
54412;SDS011;41533;51.390;0.074;2023-03-01T10:20:26;0.93;;;0.47;;
54412;SDS011;41533;51.390;0.074;2023-03-01T10:22:53;1.75;;;0.60;;
54412;SDS011;41533;51.390;0.074;2023-03-01T10:28:05;0.60;;;0.60;;
54412;SDS011;41533;51.390;0.074;2023-03-01T10:30:36;1.35;;;0.50;;
54412;SDS011;41533;51.390;0.074;2023-03-01T10:33:29;0.88;;;0.60;;
54412;SDS011;41533;51.390;0.074;2023-03-01T10:35:53;1.10;;;0.55;;
54412;SDS011;41533;51.390;0.074;2023-03-01T10:38:21;1.35;;;0.65;;
54412;SDS011;41533;51.390;0.074;2023-03-01T10:40:56;1.05;;;0.40;;
54412;SDS011;41533;51.390;0.074;2023-03-01T10:46:30;0.40;;;0.40;;
54412;SDS011;41533;51.390;0.074;2023-03-01T10:49:14;3.28;;;0.52;;
54412;SDS011;41533;51.390;0.074;2023-03-01T10:51:46;0.77;;;0.57;;
54412;SDS011;41533;51.390;0.074;2023-03-01T10:54:18;0.75;;;0.38;;
54412;SDS011;41533;51.390;0.074;2023-03-01T10:56:47;0.53;;;0.43;;
54412;SDS011;41533;51.390;0.074;2023-03-01T11:07:49;0.30;;;0.30;;
54412;SDS011;41533;51.390;0.074;2023-03-01T11:10:17;1.77;;;0.40;;
54412;SDS011;41533;51.390;0.074;2023-03-01T11:12:45;0.60;;;0.35;;
54412;SDS011;41533;51.390;0.074;2023-03-01T11:15:23;0.80;;;0.57;;
54412;SDS011;41533;51.390;0.074;2023-03-01T11:17:51;2.10;;;0.47;;
54412;SDS011;41533;51.390;0.074;2023-03-01T11:20:25;0.40;;;0.40;;
54412;SDS011;41533;51.390;0.074;2023-03-01T11:22:56;0.55;;;0.50;;
54412;SDS011;41533;51.390;0.074;2023-03-01T11:25:26;0.30;;;0.30;;
54412;SDS011;41533;51.390;0.074;2023-03-01T11:27:54;0.70;;;0.40;;
54412;SDS011;41533;51.390;0.074;2023-03-01T11:35:57;1.30;;;0.98;;
54412;SDS011;41533;51.390;0.074;2023-03-01T11:38:28;0.35;;;0.35;;
54412;SDS011;41533;51.390;0.074;2023-03-01T11:43:32;0.38;;;0.38;;
54412;SDS011;41533;51.390;0.074;2023-03-01T11:46:06;0.43;;;0.43;;
54412;SDS011;41533;51.390;0.074;2023-03-01T11:51:20;0.50;;;0.50;;
54412;SDS011;41533;51.390;0.074;2023-03-01T11:54:01;0.80;;;0.30;;
54412;SDS011;41533;51.390;0.074;2023-03-01T11:56:38;0.30;;;0.30;;
54412;SDS011;41533;51.390;0.074;2023-03-01T11:59:26;0.43;;;0.35;;
54412;SDS011;41533;51.390;0.074;2023-03-01T12:07:22;5.85;;;0.60;;
54412;SDS011;41533;51.390;0.074;2023-03-01T12:12:46;0.38;;;0.38;;
54412;SDS011;41533;51.390;0.074;2023-03-01T12:21:01;2.20;;;0.43;;
54412;SDS011;41533;51.390;0.074;2023-03-01T12:23:42;0.65;;;0.47;;
54412;SDS011;41533;51.390;0.074;2023-03-01T12:31:43;0.80;;;0.57;;
54412;SDS011;41533;51.390;0.074;2023-03-01T12:50:20;0.95;;;0.70;;
54412;SDS011;41533;51.390;0.074;2023-03-01T12:52:52;0.57;;;0.40;;
54412;SDS011;41533;51.390;0.074;2023-03-01T12:55:29;0.47;;;0.47;;
54412;SDS011;41533;51.390;0.074;2023-03-01T12:58:46;1.15;;;0.50;;
54412;SDS011;41533;51.390;0.074;2023-03-01T13:01:02;1.17;;;0.52;;
54412;SDS011;41533;51.390;0.074;2023-03-01T13:09:19;0.73;;;0.50;;
54412;SDS011;41533;51.390;0.074;2023-03-01T13:11:50;0.70;;;0.50;;
54412;SDS011;41533;51.390;0.074;2023-03-01T13:16:50;1.17;;;0.55;;
54412;SDS011;41533;51.390;0.074;2023-03-01T13:19:18;1.55;;;0.50;;
54412;SDS011;41533;51.390;0.074;2023-03-01T13:21:47;0.50;;;0.40;;
54412;SDS011;41533;51.390;0.074;2023-03-01T13:24:26;0.75;;;0.50;;
54412;SDS011;41533;51.390;0.074;2023-03-01T13:37:46;0.75;;;0.60;;
54412;SDS011;41533;51.390;0.074;2023-03-01T13:42:54;1.95;;;0.30;;
54412;SDS011;41533;51.390;0.074;2023-03-01T13:45:34;1.35;;;0.50;;
54412;SDS011;41533;51.390;0.074;2023-03-01T13:48:15;0.50;;;0.50;;
54412;SDS011;41533;51.390;0.074;2023-03-01T13:50:46;4.35;;;0.50;;
54412;SDS011;41533;51.390;0.074;2023-03-01T13:53:19;1.02;;;0.70;;
54412;SDS011;41533;51.390;0.074;2023-03-01T13:55:55;1.10;;;0.60;;
54412;SDS011;41533;51.390;0.074;2023-03-01T13:58:27;1.52;;;0.40;;
54412;SDS011;41533;51.390;0.074;2023-03-01T14:00:55;1.40;;;0.70;;
54412;SDS011;41533;51.390;0.074;2023-03-01T14:03:23;0.77;;;0.60;;
54412;SDS011;41533;51.390;0.074;2023-03-01T14:08:40;3.25;;;0.60;;
54412;SDS011;41533;51.390;0.074;2023-03-01T14:18:55;1.40;;;0.60;;
54412;SDS011;41533;51.390;0.074;2023-03-01T14:21:25;0.50;;;0.50;;
54412;SDS011;41533;51.390;0.074;2023-03-01T14:23:53;0.88;;;0.55;;
54412;SDS011;41533;51.390;0.074;2023-03-01T14:26:21;0.77;;;0.60;;
54412;SDS011;41533;51.390;0.074;2023-03-01T14:28:49;2.28;;;0.82;;
54412;SDS011;41533;51.390;0.074;2023-03-01T14:31:31;0.68;;;0.40;;
54412;SDS011;41533;51.390;0.074;2023-03-01T14:34:18;0.40;;;0.40;;
54412;SDS011;41533;51.390;0.074;2023-03-01T14:36:46;0.75;;;0.40;;
54412;SDS011;41533;51.390;0.074;2023-03-01T14:39:22;0.98;;;0.77;;
54412;SDS011;41533;51.390;0.074;2023-03-01T14:41:50;0.50;;;0.50;;
54412;SDS011;41533;51.390;0.074;2023-03-01T14:44:19;0.45;;;0.40;;
54412;SDS011;41533;51.390;0.074;2023-03-01T14:46:56;0.85;;;0.50;;
54412;SDS011;41533;51.390;0.074;2023-03-01T14:49:25;2.30;;;0.47;;
54412;SDS011;41533;51.390;0.074;2023-03-01T14:54:35;0.93;;;0.43;;
54412;SDS011;41533;51.390;0.074;2023-03-01T14:57:18;3.85;;;0.55;;
54412;SDS011;41533;51.390;0.074;2023-03-01T14:59:45;0.80;;;0.40;;
54412;SDS011;41533;51.390;0.074;2023-03-01T15:02:16;0.68;;;0.40;;
54412;SDS011;41533;51.390;0.074;2023-03-01T15:04:49;0.60;;;0.60;;
54412;SDS011;41533;51.390;0.074;2023-03-01T15:07:20;2.35;;;0.50;;
54412;SDS011;41533;51.390;0.074;2023-03-01T15:09:47;0.93;;;0.40;;
54412;SDS011;41533;51.390;0.074;2023-03-01T15:12:33;0.98;;;0.60;;
54412;SDS011;41533;51.390;0.074;2023-03-01T15:15:18;1.20;;;0.60;;
54412;SDS011;41533;51.390;0.074;2023-03-01T15:17:57;0.65;;;0.52;;
54412;SDS011;41533;51.390;0.074;2023-03-01T15:20:26;1.05;;;0.63;;
54412;SDS011;41533;51.390;0.074;2023-03-01T15:22:54;0.93;;;0.57;;
54412;SDS011;41533;51.390;0.074;2023-03-01T15:25:23;1.42;;;0.80;;
54412;SDS011;41533;51.390;0.074;2023-03-01T15:27:51;1.33;;;0.65;;
54412;SDS011;41533;51.390;0.074;2023-03-01T15:30:20;1.38;;;0.70;;
54412;SDS011;41533;51.390;0.074;2023-03-01T15:32:48;0.95;;;0.80;;
54412;SDS011;41533;51.390;0.074;2023-03-01T15:35:43;1.02;;;0.70;;
54412;SDS011;41533;51.390;0.074;2023-03-01T15:38:23;2.63;;;0.57;;
54412;SDS011;41533;51.390;0.074;2023-03-01T15:40:52;0.68;;;0.50;;
54412;SDS011;41533;51.390;0.074;2023-03-01T15:46:05;1.58;;;0.63;;
54412;SDS011;41533;51.390;0.074;2023-03-01T15:48:44;1.67;;;0.73;;
54412;SDS011;41533;51.390;0.074;2023-03-01T15:51:12;0.85;;;0.40;;
54412;SDS011;41533;51.390;0.074;2023-03-01T15:53:41;0.57;;;0.57;;
54412;SDS011;41533;51.390;0.074;2023-03-01T15:56:20;1.08;;;0.80;;
54412;SDS011;41533;51.390;0.074;2023-03-01T15:58:56;0.95;;;0.65;;
54412;SDS011;41533;51.390;0.074;2023-03-01T16:01:25;1.17;;;0.50;;
54412;SDS011;41533;51.390;0.074;2023-03-01T16:03:57;2.38;;;0.80;;
54412;SDS011;41533;51.390;0.074;2023-03-01T16:06:25;0.50;;;0.50;;
54412;SDS011;41533;51.390;0.074;2023-03-01T16:08:54;0.73;;;0.60;;
54412;SDS011;41533;51.390;0.074;2023-03-01T16:11:26;1.23;;;0.70;;
54412;SDS011;41533;51.390;0.074;2023-03-01T16:13:56;1.10;;;0.73;;
54412;SDS011;41533;51.390;0.074;2023-03-01T16:16:23;2.50;;;0.60;;
54412;SDS011;41533;51.390;0.074;2023-03-01T16:19:19;0.30;;;0.30;;
54412;SDS011;41533;51.390;0.074;2023-03-01T16:21:47;0.60;;;0.47;;
54412;SDS011;41533;51.390;0.074;2023-03-01T16:24:16;0.80;;;0.70;;
54412;SDS011;41533;51.390;0.074;2023-03-01T16:26:45;1.17;;;0.82;;
54412;SDS011;41533;51.390;0.074;2023-03-01T16:29:13;2.00;;;0.70;;
54412;SDS011;41533;51.390;0.074;2023-03-01T16:31:44;0.75;;;0.60;;
54412;SDS011;41533;51.390;0.074;2023-03-01T16:34:14;2.08;;;0.55;;
54412;SDS011;41533;51.390;0.074;2023-03-01T16:36:42;1.42;;;0.68;;
54412;SDS011;41533;51.390;0.074;2023-03-01T16:39:10;0.75;;;0.70;;
54412;SDS011;41533;51.390;0.074;2023-03-01T16:41:40;1.08;;;0.70;;
54412;SDS011;41533;51.390;0.074;2023-03-01T16:44:11;1.83;;;0.70;;
54412;SDS011;41533;51.390;0.074;2023-03-01T16:46:40;1.52;;;0.80;;
54412;SDS011;41533;51.390;0.074;2023-03-01T16:49:08;2.17;;;0.80;;
54412;SDS011;41533;51.390;0.074;2023-03-01T16:51:36;2.88;;;1.17;;
54412;SDS011;41533;51.390;0.074;2023-03-01T16:54:04;1.33;;;0.85;;
54412;SDS011;41533;51.390;0.074;2023-03-01T16:56:33;1.63;;;0.90;;
54412;SDS011;41533;51.390;0.074;2023-03-01T16:59:02;4.13;;;0.80;;
54412;SDS011;41533;51.390;0.074;2023-03-01T17:01:31;1.15;;;0.90;;
54412;SDS011;41533;51.390;0.074;2023-03-01T17:04:05;0.95;;;0.70;;
54412;SDS011;41533;51.390;0.074;2023-03-01T17:06:32;0.90;;;0.90;;
54412;SDS011;41533;51.390;0.074;2023-03-01T17:09:03;3.83;;;0.82;;
54412;SDS011;41533;51.390;0.074;2023-03-01T17:11:30;4.63;;;1.08;;
54412;SDS011;41533;51.390;0.074;2023-03-01T17:14:00;0.70;;;0.60;;